createdAt,value
2022-10-24T00:01:40.016Z,101142.63
2022-10-24T00:04:08.240Z,101143.06
2022-10-24T00:06:36.459Z,101145.03
2022-10-24T00:09:04.694Z,101138.13
2022-10-24T00:11:33.447Z,101142.25
2022-10-24T00:14:02.202Z,101138.50
2022-10-24T00:16:31.041Z,101132.56
2022-10-24T00:18:59.180Z,101139.47
2022-10-24T00:21:27.470Z,101133.53
2022-10-24T00:23:55.653Z,101127.72
2022-10-24T00:26:23.759Z,101119.84
2022-10-24T00:28:51.992Z,101107.63
2022-10-24T00:31:20.612Z,101107.50
2022-10-24T00:33:49.185Z,101109.97
2022-10-24T00:36:20.425Z,101118.13
2022-10-24T00:38:49.388Z,101122.16
2022-10-24T00:41:23.322Z,101132.97
2022-10-24T00:44:11.308Z,101131.31
2022-10-24T00:46:41.757Z,101126.31
2022-10-24T00:49:15.080Z,101121.31
2022-10-24T00:51:44.414Z,101125.38
2022-10-24T00:54:13.996Z,101119.84
2022-10-24T00:56:47.422Z,101112.31
2022-10-24T00:59:20.070Z,101118.28
2022-10-24T01:01:48.895Z,101120.50
2022-10-24T01:04:17.062Z,101118.97
2022-10-24T01:06:54.781Z,101120.78
2022-10-24T01:09:43.879Z,101137.94
2022-10-24T01:12:22.190Z,101150.69
2022-10-24T01:15:08.261Z,101137.94
2022-10-24T01:18:02.189Z,101138.34
2022-10-24T01:20:32.924Z,101145.97
2022-10-24T01:23:27.513Z,101140.56
2022-10-24T01:26:02.628Z,101132.66
2022-10-24T01:28:53.628Z,101132.28
2022-10-24T01:31:34.290Z,101122.41
2022-10-24T01:34:40.604Z,101113.28
2022-10-24T01:37:15.923Z,101116.75
2022-10-24T01:39:49.917Z,101116.59
2022-10-24T01:42:22.804Z,101114.94
2022-10-24T01:44:55.065Z,101117.72
2022-10-24T01:47:30.738Z,101113.56
2022-10-24T01:50:04.401Z,101110.38
2022-10-24T01:52:39.441Z,101110.38
2022-10-24T01:55:08.267Z,101105.50
2022-10-24T01:57:37.043Z,101105.94
2022-10-24T02:00:07.948Z,101099.28
2022-10-24T02:02:45.952Z,101095.69
2022-10-24T02:05:47.498Z,101092.75
2022-10-24T02:08:21.979Z,101098.72
2022-10-24T02:10:56.334Z,101094.84
2022-10-24T02:13:42.280Z,101085.97
2022-10-24T02:16:11.332Z,101083.34
2022-10-24T02:18:40.757Z,101079.59
2022-10-24T02:21:32.554Z,101079.03
2022-10-24T02:24:18.514Z,101073.66
2022-10-24T02:26:53.453Z,101076.72
2022-10-24T02:29:53.229Z,101074.50
2022-10-24T02:32:31.807Z,101075.03
2022-10-24T02:35:02.682Z,101071.03
2022-10-24T02:37:34.267Z,101063.41
2022-10-24T02:40:05.661Z,101061.06
2022-10-24T02:42:35.837Z,101065.06
2022-10-24T02:45:05.820Z,101062.56
2022-10-24T02:47:35.380Z,101070.72
2022-10-24T02:50:03.749Z,101061.88
2022-10-24T02:52:32.495Z,101056.50
2022-10-24T02:55:00.654Z,101062.19
2022-10-24T02:57:28.882Z,101060.22
2022-10-24T02:59:57.026Z,101054.13
2022-10-24T03:02:26.195Z,101047.22
2022-10-24T03:04:54.644Z,101043.88
2022-10-24T03:07:23.402Z,101039.47
2022-10-24T03:09:51.618Z,101045.53
2022-10-24T03:12:20.080Z,101049.25
2022-10-24T03:14:48.311Z,101037.78
2022-10-24T03:17:16.448Z,101052.31
2022-10-24T03:19:45.253Z,101054.53
2022-10-24T03:22:13.400Z,101048.16
2022-10-24T03:24:54.896Z,101051.38
2022-10-24T03:27:23.750Z,101043.88
2022-10-24T03:29:51.790Z,101046.38
2022-10-24T03:32:20.068Z,101054.97
2022-10-24T03:34:48.265Z,101053.16
2022-10-24T03:37:16.483Z,101045.97
2022-10-24T03:39:44.670Z,101047.63
2022-10-24T03:42:12.825Z,101041.38
2022-10-24T03:44:40.913Z,101043.75
2022-10-24T03:47:09.167Z,101056.63
2022-10-24T03:49:37.268Z,101054.53
2022-10-24T03:52:07.122Z,101057.16
2022-10-24T03:54:35.654Z,101064.06
2022-10-24T03:57:04.227Z,101070.16
2022-10-24T03:59:32.347Z,101060.47
2022-10-24T04:02:01.594Z,101057.28
2022-10-24T04:04:30.204Z,101062.69
2022-10-24T04:07:00.322Z,101053.41
2022-10-24T04:09:29.495Z,101049.53
2022-10-24T04:11:57.622Z,101049.78
2022-10-24T04:14:25.694Z,101047.13
2022-10-24T04:16:53.797Z,101035.81
2022-10-24T04:19:22.039Z,101033.03
2022-10-24T04:21:50.192Z,101035.22
2022-10-24T04:24:18.387Z,101038.56
2022-10-24T04:26:46.676Z,101039.13
2022-10-24T04:29:14.775Z,101030.28
2022-10-24T04:31:42.920Z,101023.94
2022-10-24T04:34:11.139Z,101035.13
2022-10-24T04:36:39.274Z,101047.16
2022-10-24T04:39:10.197Z,101049.25
2022-10-24T04:41:38.350Z,101057.97
2022-10-24T04:44:06.595Z,101065.53
2022-10-24T04:46:34.891Z,101069.28
2022-10-24T04:51:48.654Z,101071.38
2022-10-24T04:54:16.903Z,101062.06
2022-10-24T04:56:45.029Z,101055.41
2022-10-24T04:59:13.179Z,101050.88
2022-10-24T05:01:41.384Z,101046.84
2022-10-24T05:04:09.656Z,101050.47
2022-10-24T05:06:39.289Z,101041.91
2022-10-24T05:09:09.556Z,101044.56
2022-10-24T05:11:37.686Z,101036.38
2022-10-24T05:14:05.795Z,101025.47
2022-10-24T05:16:34.029Z,101020.19
2022-10-24T05:19:02.125Z,101028.81
2022-10-24T05:21:30.247Z,101025.19
2022-10-24T05:23:58.428Z,101019.50
2022-10-24T05:26:26.728Z,101025.19
2022-10-24T05:28:54.913Z,101023.19
2022-10-24T05:31:23.451Z,101038.81
2022-10-24T05:33:54.255Z,101038.41
2022-10-24T05:36:22.366Z,101031.47
2022-10-24T05:38:50.480Z,101025.38
2022-10-24T05:41:18.682Z,101023.06
2022-10-24T05:43:46.904Z,101028.19
2022-10-24T05:46:15.050Z,101020.56
2022-10-24T05:48:43.207Z,101018.38
2022-10-24T05:51:11.532Z,101028.88
2022-10-24T05:53:39.645Z,101035.38
2022-10-24T05:56:07.892Z,101025.25
2022-10-24T05:58:39.276Z,101016.16
2022-10-24T06:01:07.489Z,101022.13
2022-10-24T06:03:35.790Z,101028.75
2022-10-24T06:06:09.083Z,101024.88
2022-10-24T06:08:38.314Z,101026.84
2022-10-24T06:11:10.763Z,101044.28
2022-10-24T06:13:39.141Z,101041.22
2022-10-24T06:16:07.981Z,101044.25
2022-10-24T06:18:41.243Z,101045.25
2022-10-24T06:21:12.483Z,101031.13
2022-10-24T06:23:43.234Z,101026.69
2022-10-24T06:26:11.992Z,101017.69
2022-10-24T06:28:40.929Z,101023.25
2022-10-24T06:31:11.129Z,101026.56
2022-10-24T06:33:39.564Z,101018.81
2022-10-24T06:36:12.004Z,101022.81
2022-10-24T06:38:40.164Z,101006.31
2022-10-24T06:41:09.835Z,101011.41
2022-10-24T06:43:38.540Z,101020.69
2022-10-24T06:46:08.521Z,101029.25
2022-10-24T06:48:37.348Z,101039.25
2022-10-24T06:51:05.757Z,101041.47
2022-10-24T06:53:34.596Z,101047.56
2022-10-24T06:56:04.419Z,101049.50
2022-10-24T06:58:34.205Z,101043.66
2022-10-24T07:01:09.265Z,101043.78
2022-10-24T07:03:37.721Z,101049.16
2022-10-24T07:06:24.054Z,101050.00
2022-10-24T07:08:54.467Z,101048.41
2022-10-24T07:11:22.986Z,101045.63
2022-10-24T07:13:51.504Z,101047.13
2022-10-24T07:16:24.573Z,101027.06
2022-10-24T07:18:53.736Z,101019.84
2022-10-24T07:21:25.441Z,101028.31
2022-10-24T07:23:54.708Z,101041.91
2022-10-24T07:26:25.013Z,101036.44
2022-10-24T07:28:56.275Z,101030.88
2022-10-24T07:31:27.342Z,101025.81
2022-10-24T07:33:56.288Z,101028.97
2022-10-24T07:36:26.491Z,101031.84
2022-10-24T07:38:57.382Z,101029.41
2022-10-24T07:41:28.573Z,101022.28
2022-10-24T07:43:58.761Z,101026.03
2022-10-24T07:46:26.919Z,101019.19
2022-10-24T07:48:55.596Z,101015.03
2022-10-24T07:51:24.169Z,101019.63
2022-10-24T07:53:54.159Z,101032.66
2022-10-24T07:56:22.481Z,101036.66
2022-10-24T07:58:50.648Z,101023.03
2022-10-24T08:01:24.743Z,101032.03
2022-10-24T08:03:53.702Z,101021.03
2022-10-24T08:06:25.108Z,101005.63
2022-10-24T08:08:53.362Z,101010.41
2022-10-24T08:11:27.020Z,101018.28
2022-10-24T08:13:57.334Z,101028.03
2022-10-24T08:16:26.478Z,101034.19
2022-10-24T08:18:56.845Z,101041.06
2022-10-24T08:21:26.305Z,101042.78
2022-10-24T08:23:55.635Z,101032.84
2022-10-24T08:26:25.501Z,101036.56
2022-10-24T08:28:55.326Z,101041.50
2022-10-24T08:31:24.842Z,101042.59
2022-10-24T08:33:55.068Z,101043.19
2022-10-24T08:36:26.798Z,101038.94
2022-10-24T08:38:55.070Z,101041.38
2022-10-24T08:41:50.469Z,101037.72
2022-10-24T08:44:31.133Z,101038.69
2022-10-24T08:47:11.489Z,101052.16
2022-10-24T08:49:49.427Z,101043.91
2022-10-24T08:52:37.625Z,101040.59
2022-10-24T08:55:44.351Z,101035.69
2022-10-24T08:58:13.649Z,101033.81
2022-10-24T09:00:44.724Z,101023.41
2022-10-24T09:03:43.918Z,101011.38
2022-10-24T09:06:22.235Z,101020.84
2022-10-24T09:08:58.349Z,101018.25
2022-10-24T09:11:41.169Z,101019.75
2022-10-24T09:14:37.317Z,101018.94
2022-10-24T09:20:11.559Z,101024.19
2022-10-24T09:22:43.477Z,101015.78
2022-10-24T09:25:34.974Z,101003.03
2022-10-24T09:28:06.276Z,101003.22
2022-10-24T09:30:36.701Z,101002.16
2022-10-24T09:33:33.674Z,101007.41
2022-10-24T09:36:04.283Z,100998.84
2022-10-24T09:38:40.692Z,101001.09
2022-10-24T09:41:29.903Z,100991.97
2022-10-24T09:44:00.540Z,100969.22
2022-10-24T09:46:39.668Z,100961.41
2022-10-24T09:49:17.054Z,100979.53
2022-10-24T09:52:16.625Z,100994.06
2022-10-24T09:54:46.431Z,100977.78
2022-10-24T09:57:16.930Z,100966.28
2022-10-24T09:59:57.816Z,100959.19
2022-10-24T10:02:34.687Z,100966.50
2022-10-24T10:05:02.892Z,100978.94
2022-10-24T10:07:41.747Z,100985.16
2022-10-24T10:10:37.765Z,100984.38
2022-10-24T10:13:27.521Z,100969.16
2022-10-24T10:16:01.198Z,100964.03
2022-10-24T10:18:32.554Z,100965.91
2022-10-24T10:21:00.689Z,100979.03
2022-10-24T10:23:36.280Z,100973.56
2022-10-24T10:26:37.447Z,100966.19
2022-10-24T10:29:26.029Z,100965.13
2022-10-24T10:32:13.678Z,100973.56
2022-10-24T10:34:51.481Z,100975.78
2022-10-24T10:37:32.549Z,100958.03
2022-10-24T10:40:37.650Z,100966.03
2022-10-24T10:43:56.812Z,100956.66
2022-10-24T10:46:33.608Z,100939.47
2022-10-24T10:49:20.677Z,100940.16
2022-10-24T10:51:54.547Z,100942.66
2022-10-24T10:54:53.693Z,100946.59
2022-10-24T10:57:54.207Z,100925.66
2022-10-24T11:00:25.769Z,100925.66
2022-10-24T11:03:17.450Z,100921.75
2022-10-24T11:06:06.600Z,100928.50
2022-10-24T11:08:48.950Z,100933.22
2022-10-24T11:11:31.228Z,100920.72
2022-10-24T11:14:14.377Z,100918.84
2022-10-24T11:16:43.478Z,100919.66
2022-10-24T11:19:45.558Z,100927.94
2022-10-24T11:22:23.425Z,100907.75
2022-10-24T11:25:02.565Z,100913.81
2022-10-24T11:27:43.942Z,100907.63
2022-10-24T11:30:19.125Z,100898.25
2022-10-24T11:32:55.394Z,100885.69
2022-10-24T11:35:30.882Z,100891.72
2022-10-24T11:38:16.412Z,100889.91
2022-10-24T11:40:47.983Z,100874.63
2022-10-24T11:43:27.260Z,100886.94
2022-10-24T11:46:26.510Z,100877.22
2022-10-24T11:49:25.886Z,100879.44
2022-10-24T11:52:21.524Z,100870.59
2022-10-24T11:55:00.875Z,100869.41
2022-10-24T11:57:32.269Z,100864.56
2022-10-24T12:00:00.611Z,100863.97
2022-10-24T12:02:37.670Z,100861.34
2022-10-24T12:05:31.617Z,100852.69
2022-10-24T12:08:05.491Z,100846.19
2022-10-24T12:10:59.420Z,100839.22
2022-10-24T12:13:55.370Z,100828.69
2022-10-24T12:16:40.727Z,100829.09
2022-10-24T12:19:18.541Z,100834.44
2022-10-24T12:21:53.337Z,100834.31
2022-10-24T12:24:30.317Z,100843.25
2022-10-24T12:27:03.849Z,100834.38
2022-10-24T12:29:34.560Z,100825.84
2022-10-24T12:32:41.622Z,100799.06
2022-10-24T12:35:31.351Z,100796.06
2022-10-24T12:38:14.478Z,100810.75
2022-10-24T12:41:06.080Z,100811.16
2022-10-24T12:43:45.465Z,100796.81
2022-10-24T12:46:22.652Z,100783.78
2022-10-24T12:48:59.885Z,100785.88
2022-10-24T12:51:39.053Z,100788.03
2022-10-24T12:54:13.264Z,100771.81
2022-10-24T12:56:50.529Z,100761.84
2022-10-24T12:59:46.105Z,100759.31
2022-10-24T13:02:20.291Z,100777.28
2022-10-24T13:05:07.602Z,100762.41
2022-10-24T13:07:38.525Z,100746.59
2022-10-24T13:10:31.563Z,100754.59
2022-10-24T13:13:21.012Z,100767.97
2022-10-24T13:15:57.930Z,100765.59
2022-10-24T13:18:49.762Z,100775.91
2022-10-24T13:21:56.089Z,100754.25
2022-10-24T13:24:29.726Z,100750.78
2022-10-24T13:26:58.172Z,100734.47
2022-10-24T13:29:30.839Z,100742.06
2022-10-24T13:32:05.139Z,100736.63
2022-10-24T13:34:52.617Z,100728.22
2022-10-24T13:37:31.683Z,100744.25
2022-10-24T13:40:10.934Z,100742.53
2022-10-24T13:42:50.958Z,100740.34
2022-10-24T13:45:42.109Z,100736.22
2022-10-24T13:48:19.547Z,100749.47
2022-10-24T13:51:13.928Z,100731.72
2022-10-24T13:53:50.255Z,100707.63
2022-10-24T13:56:19.070Z,100722.13
2022-10-24T13:58:47.337Z,100727.81
2022-10-24T14:01:23.944Z,100722.34
2022-10-24T14:03:54.305Z,100712.69
2022-10-24T14:06:31.233Z,100719.88
2022-10-24T14:09:09.308Z,100726.28
2022-10-24T14:11:47.427Z,100728.09
2022-10-24T14:14:30.317Z,100727.69
2022-10-24T14:17:23.973Z,100721.56
2022-10-24T14:20:00.050Z,100713.53
2022-10-24T14:22:39.854Z,100711.50
2022-10-24T14:25:24.248Z,100716.31
2022-10-24T14:27:54.806Z,100711.66
2022-10-24T14:30:26.417Z,100712.78
2022-10-24T14:33:15.110Z,100707.09
2022-10-24T14:35:43.438Z,100703.31
2022-10-24T14:38:15.728Z,100712.75
2022-10-24T14:40:53.882Z,100710.16
2022-10-24T14:43:30.393Z,100717.78
2022-10-24T14:46:32.443Z,100707.56
2022-10-24T14:49:29.360Z,100707.75
2022-10-24T14:52:09.571Z,100705.91
2022-10-24T14:54:38.900Z,100705.69
2022-10-24T14:57:18.186Z,100708.19
2022-10-24T14:59:47.696Z,100699.97
2022-10-24T15:02:26.542Z,100707.16
2022-10-24T15:05:14.319Z,100719.47
2022-10-24T15:07:57.327Z,100714.75
2022-10-24T15:10:37.513Z,100711.25
2022-10-24T15:13:21.012Z,100702.81
2022-10-24T15:15:53.950Z,100711.22
2022-10-24T15:18:28.337Z,100712.03
2022-10-24T15:21:13.142Z,100708.75
2022-10-24T15:23:50.185Z,100711.00
2022-10-24T15:26:34.767Z,100710.34
2022-10-24T15:29:02.817Z,100703.59
2022-10-24T15:31:32.675Z,100698.66
2022-10-24T15:34:00.849Z,100698.00
2022-10-24T15:36:35.877Z,100699.22
2022-10-24T15:39:24.734Z,100693.81
2022-10-24T15:41:54.081Z,100691.13
2022-10-24T15:44:26.856Z,100694.16
2022-10-24T15:46:56.113Z,100702.56
2022-10-24T15:49:24.277Z,100708.25
2022-10-24T15:51:52.568Z,100714.19
2022-10-24T15:54:22.616Z,100715.16
2022-10-24T15:56:51.047Z,100719.00
2022-10-24T15:59:20.205Z,100715.81
2022-10-24T16:01:54.877Z,100705.59
2022-10-24T16:04:23.766Z,100700.88
2022-10-24T16:06:54.070Z,100703.72
2022-10-24T16:09:27.412Z,100709.63
2022-10-24T16:11:55.445Z,100717.13
2022-10-24T16:14:27.959Z,100711.34
2022-10-24T16:16:56.616Z,100713.50
2022-10-24T16:19:29.203Z,100712.00
2022-10-24T16:21:58.594Z,100716.25
2022-10-24T16:24:28.116Z,100713.94
2022-10-24T16:26:56.567Z,100724.69
2022-10-24T16:29:24.741Z,100728.19
2022-10-24T16:31:53.160Z,100714.56
2022-10-24T16:34:21.306Z,100709.84
2022-10-24T16:36:56.777Z,100707.75
2022-10-24T16:39:24.949Z,100710.78
2022-10-24T16:41:57.725Z,100712.00
2022-10-24T16:44:28.684Z,100710.34
2022-10-24T16:46:56.806Z,100705.84
2022-10-24T16:49:24.997Z,100696.34
2022-10-24T16:51:53.145Z,100689.69
2022-10-24T16:54:22.860Z,100693.81
2022-10-24T16:56:53.889Z,100691.44
2022-10-24T16:59:22.580Z,100688.19
2022-10-24T17:01:51.027Z,100686.13
2022-10-24T17:04:19.295Z,100686.13
2022-10-24T17:06:47.443Z,100698.50
2022-10-24T17:09:15.837Z,100698.84
2022-10-24T17:11:45.833Z,100696.97
2022-10-24T17:14:15.092Z,100698.44
2022-10-24T17:16:44.031Z,100691.66
2022-10-24T17:19:16.058Z,100697.53
2022-10-24T17:21:47.379Z,100698.06
2022-10-24T17:24:17.673Z,100697.25
2022-10-24T17:26:46.286Z,100696.41
2022-10-24T17:29:26.723Z,100700.28
2022-10-24T17:31:57.735Z,100707.16
2022-10-24T17:34:26.830Z,100710.00
2022-10-24T17:36:59.766Z,100704.97
2022-10-24T17:39:32.852Z,100712.69
2022-10-24T17:42:01.112Z,100710.56
2022-10-24T17:44:29.508Z,100711.91
2022-10-24T17:46:58.503Z,100709.66
2022-10-24T17:49:26.770Z,100715.69
2022-10-24T17:51:55.160Z,100718.53
2022-10-24T17:54:23.404Z,100725.38
2022-10-24T17:56:54.541Z,100720.78
2022-10-24T17:59:22.649Z,100728.00
2022-10-24T18:01:50.869Z,100726.16
2022-10-24T18:04:19.185Z,100725.59
2022-10-24T18:06:47.372Z,100716.91
2022-10-24T18:09:15.527Z,100717.81
2022-10-24T18:11:43.663Z,100721.44
2022-10-24T18:14:11.918Z,100717.97
2022-10-24T18:16:40.242Z,100722.91
2022-10-24T18:19:08.511Z,100720.06
2022-10-24T18:21:36.672Z,100716.13
2022-10-24T18:24:09.112Z,100723.19
2022-10-24T18:26:37.279Z,100730.00
2022-10-24T18:29:05.650Z,100734.84
2022-10-24T18:31:34.461Z,100734.31
2022-10-24T18:34:06.208Z,100730.38
2022-10-24T18:36:37.023Z,100724.63
2022-10-24T18:39:05.446Z,100731.97
2022-10-24T18:41:57.145Z,100737.16
2022-10-24T18:44:28.953Z,100729.44
2022-10-24T18:47:06.077Z,100730.97
2022-10-24T18:49:35.304Z,100723.53
2022-10-24T18:52:30.605Z,100732.72
2022-10-24T18:55:28.710Z,100735.56
2022-10-24T18:58:01.059Z,100734.91
2022-10-24T19:00:31.673Z,100728.13
2022-10-24T19:03:18.398Z,100717.91
2022-10-24T19:05:51.910Z,100718.41
2022-10-24T19:08:25.244Z,100718.59
2022-10-24T19:10:56.431Z,100727.34
2022-10-24T19:13:26.115Z,100723.53
2022-10-24T19:16:00.303Z,100720.41
2022-10-24T19:18:31.590Z,100718.28
2022-10-24T19:21:00.457Z,100729.03
2022-10-24T19:23:28.917Z,100736.84
2022-10-24T19:25:57.008Z,100735.22
2022-10-24T19:28:25.651Z,100730.91
2022-10-24T19:30:54.035Z,100730.94
2022-10-24T19:33:28.163Z,100731.28
2022-10-24T19:35:56.428Z,100721.84
2022-10-24T19:38:24.642Z,100725.34
2022-10-24T19:40:54.507Z,100720.41
2022-10-24T19:43:24.670Z,100730.16
2022-10-24T19:46:07.696Z,100735.91
2022-10-24T19:48:43.824Z,100725.66
2022-10-24T19:51:13.301Z,100724.34
2022-10-24T19:53:43.459Z,100728.50
2022-10-24T19:56:28.621Z,100729.16
2022-10-24T19:58:57.260Z,100723.88
2022-10-24T20:01:30.515Z,100730.16
2022-10-24T20:04:00.930Z,100741.06
2022-10-24T20:06:29.080Z,100735.44
2022-10-24T20:08:57.434Z,100741.22
2022-10-24T20:11:25.643Z,100733.94
2022-10-24T20:13:53.779Z,100729.50
2022-10-24T20:16:22.313Z,100739.25
2022-10-24T20:18:50.429Z,100740.59
2022-10-24T20:21:19.800Z,100747.84
2022-10-24T20:23:48.931Z,100736.78
2022-10-24T20:26:20.530Z,100740.41
2022-10-24T20:28:50.880Z,100738.75
2022-10-24T20:31:30.853Z,100738.59
2022-10-24T20:34:05.207Z,100750.19
2022-10-24T20:36:38.668Z,100751.34
2022-10-24T20:39:08.101Z,100757.59
2022-10-24T20:41:37.279Z,100749.66
2022-10-24T20:44:07.090Z,100753.28
2022-10-24T20:46:36.621Z,100746.50
2022-10-24T20:49:05.123Z,100755.78
2022-10-24T20:51:33.395Z,100750.13
2022-10-24T20:54:01.970Z,100747.16
2022-10-24T20:56:30.277Z,100750.31
2022-10-24T20:58:58.437Z,100751.81
2022-10-24T21:01:28.909Z,100739.59
2022-10-24T21:03:58.744Z,100740.25
2022-10-24T21:06:29.912Z,100744.53
2022-10-24T21:11:36.709Z,100740.22
2022-10-24T21:14:07.864Z,100744.03
2022-10-24T21:16:36.280Z,100746.72
2022-10-24T21:19:04.633Z,100743.91
2022-10-24T21:21:32.760Z,100747.34
2022-10-24T21:24:04.523Z,100735.94
2022-10-24T21:26:38.485Z,100737.94
2022-10-24T21:29:33.424Z,100736.97
2022-10-24T21:32:01.949Z,100734.16
2022-10-24T21:34:33.339Z,100740.59
2022-10-24T21:37:04.314Z,100746.38
2022-10-24T21:39:32.718Z,100749.34
2022-10-24T21:42:01.016Z,100740.25
2022-10-24T21:44:29.225Z,100738.13
2022-10-24T21:46:57.488Z,100735.81
2022-10-24T21:49:25.728Z,100739.09
2022-10-24T21:51:53.952Z,100736.13
2022-10-24T21:54:25.895Z,100739.91
2022-10-24T21:56:54.187Z,100744.84
2022-10-24T21:59:23.017Z,100741.84
2022-10-24T22:01:52.625Z,100742.69
2022-10-24T22:04:21.184Z,100749.28
2022-10-24T22:06:49.381Z,100745.31
2022-10-24T22:09:23.793Z,100741.19
2022-10-24T22:11:54.669Z,100742.50
2022-10-24T22:14:23.089Z,100750.75
2022-10-24T22:16:51.388Z,100741.31
2022-10-24T22:19:19.651Z,100739.66
2022-10-24T22:21:50.427Z,100740.03
2022-10-24T22:24:21.651Z,100746.00
2022-10-24T22:26:50.480Z,100743.69
2022-10-24T22:29:23.719Z,100756.94
2022-10-24T22:31:52.928Z,100759.59
2022-10-24T22:34:26.025Z,100745.69
2022-10-24T22:37:39.173Z,100741.41
2022-10-24T22:40:28.612Z,100746.84
2022-10-24T22:42:57.559Z,100756.28
2022-10-24T22:45:26.172Z,100760.25
2022-10-24T22:48:19.962Z,100755.94
2022-10-24T22:50:54.171Z,100750.50
2022-10-24T22:53:25.591Z,100750.66
2022-10-24T22:56:12.668Z,100744.88
2022-10-24T22:58:43.057Z,100756.94
2022-10-24T23:01:19.839Z,100759.09
2022-10-24T23:04:18.651Z,100755.47
2022-10-24T23:06:49.804Z,100760.91
2022-10-24T23:09:18.054Z,100756.44
2022-10-24T23:11:47.652Z,100759.59
2022-10-24T23:14:24.154Z,100761.72
2022-10-24T23:17:00.704Z,100760.56
2022-10-24T23:19:31.185Z,100767.84
2022-10-24T23:22:10.338Z,100768.66
2022-10-24T23:24:39.273Z,100759.59
2022-10-24T23:27:13.494Z,100761.75
2022-10-24T23:29:44.331Z,100757.44
2022-10-24T23:32:30.337Z,100773.13
2022-10-24T23:35:03.474Z,100768.34
2022-10-24T23:37:37.112Z,100766.38
2022-10-24T23:40:11.388Z,100766.03
2022-10-24T23:42:39.730Z,100771.66
2022-10-24T23:45:17.333Z,100771.66
2022-10-24T23:48:21.089Z,100764.88
2022-10-24T23:51:01.810Z,100769.00
2022-10-24T23:53:52.871Z,100773.13
2022-10-24T23:56:22.679Z,100784.03
2022-10-24T23:58:54.256Z,100785.19
